Registration

All data are given in time UTC except for the places where it is expressly stated to the contrary, The data provided on this website are informative!!!


Actual Weather
 
General weather forecast

High air temperature is forecasted with values from 25°C to 29°C.
kujlubellodzmalmazopopodkpodlpomslaswiwarHEAT (st.1)Increase of fire risk.Heatstress.High air temperature is forecasted with values from 30°C to 32°C.
lubudolwielzachHEAT (st.2)Substantial load on the body.Serious fire hazard, especially forest areas, grassy and peat bog polygons.
Weather - Poland
24°C Szczecin 24°C Suwałki 27°C Warszawa 30°C Poznan
30°C Opole 28°C Kraków 27°C Rzeszów
More cities in Poland

Weather - Europe
26°C Berlin 23°C Paryz 24°C Bruksela 23°C Oslo
27°C Praga 28°C Zagrzeb
More cities in Europe

METAR EPBC 141100Z 13005KT CAVOK 27/09 Q1015=
METAR EPCE 141130Z 10004KT 9999 SCT074 28/09 Q1015 RMK 277 032 3/3=
METAR EPDA 141130Z 36005KT 310V030 9999 FEW056 27/13 Q1014 RMK 268 042 2/2=
METAR EPDE 141130Z 08006KT 9999 SCT060 SCT200 28/11 Q1016 RMK 283 034 4/3=
METAR EPIR 141030Z 08012KT 9999 NSC 29/10 Q1014 RMK 286 031 1/1=
METAR EPKS 141130Z 10005KT 040V140 9999 BKN120 29/07 Q1013 RMK 293 025 5/5=
METAR EPLK 141130Z 14006KT 080V190 9999 FEW060 SCT080 29/08 Q1014 RMK 287 028 4/2=
METAR EPLY 141130Z 12006KT 9999 NSC 29/10 Q1014 RMK 286 033 3/1=
METAR EPMB 141130Z 08008KT 020V150 9999 FEW050 SCT200 28/10 Q1015 RMK 282 032 3/1=
METAR EPMI 141130Z 07007KT 040V110 9999 FEW050 SCT140 BKN200 29/08 Q1014 RMK 286 027 5/1=
METAR EPMM 141130Z 10005KT 360V150 9999 FEW060 SCT200 27/07 Q1016 RMK 267 028 3/1=
METAR EPNA 141130Z 10010KT 9999 FEW050 SCT200 28/09 Q1014 RMK 277 031 4/2=
METAR EPOK 141130Z 10010KT 9999 FEW030 SCT/// 24/16 Q1015 RMK 241 059 4/1=
METAR EPPR 141130Z 18006KT 9999 FEW033 SCT200 29/10 Q1015 RMK 285 031 3/1=
METAR EPPW 141130Z 12008KT 9999 FEW050 SCT200 29/10 Q1014 RMK 294 030 4/2=
METAR EPSN 141130Z AUTO 12009KT 060V180 9999 NCD 30/08 Q1014 RMK 296 025 ///=
METAR EPTM 141130Z 04006KT 9999 NSC 28/11 Q1015 RMK 278 034 2/1=


 

Copyright©2007 HS-PAF All rights reserved.